sensor_id;sensor_type;location;lat;lon;timestamp;P1;durP1;ratioP1;P2;durP2;ratioP2
21315;SDS011;10817;55.820;13.030;2023-08-06T00:00:42;4.63;;;3.03;;
21315;SDS011;10817;55.820;13.030;2023-08-06T00:03:09;7.65;;;3.58;;
21315;SDS011;10817;55.820;13.030;2023-08-06T00:05:36;8.25;;;3.60;;
21315;SDS011;10817;55.820;13.030;2023-08-06T00:08:03;3.80;;;3.10;;
21315;SDS011;10817;55.820;13.030;2023-08-06T00:10:30;6.05;;;3.50;;
21315;SDS011;10817;55.820;13.030;2023-08-06T00:12:57;5.63;;;3.65;;
21315;SDS011;10817;55.820;13.030;2023-08-06T00:15:26;6.25;;;3.42;;
21315;SDS011;10817;55.820;13.030;2023-08-06T00:17:53;13.77;;;3.72;;
21315;SDS011;10817;55.820;13.030;2023-08-06T00:20:20;7.18;;;3.38;;
21315;SDS011;10817;55.820;13.030;2023-08-06T00:22:47;7.72;;;3.15;;
21315;SDS011;10817;55.820;13.030;2023-08-06T00:25:15;4.43;;;3.30;;
21315;SDS011;10817;55.820;13.030;2023-08-06T00:27:42;7.22;;;3.50;;
21315;SDS011;10817;55.820;13.030;2023-08-06T00:30:09;6.93;;;3.67;;
21315;SDS011;10817;55.820;13.030;2023-08-06T00:32:38;7.60;;;3.20;;
21315;SDS011;10817;55.820;13.030;2023-08-06T00:35:05;8.65;;;3.30;;
21315;SDS011;10817;55.820;13.030;2023-08-06T00:37:33;4.63;;;2.80;;
21315;SDS011;10817;55.820;13.030;2023-08-06T00:40:00;5.45;;;3.03;;
21315;SDS011;10817;55.820;13.030;2023-08-06T00:42:27;10.20;;;2.88;;
21315;SDS011;10817;55.820;13.030;2023-08-06T00:44:54;5.32;;;3.53;;
21315;SDS011;10817;55.820;13.030;2023-08-06T00:47:23;5.85;;;3.50;;
21315;SDS011;10817;55.820;13.030;2023-08-06T00:49:52;12.50;;;3.15;;
21315;SDS011;10817;55.820;13.030;2023-08-06T00:52:19;10.55;;;3.55;;
21315;SDS011;10817;55.820;13.030;2023-08-06T00:54:46;6.18;;;3.70;;
21315;SDS011;10817;55.820;13.030;2023-08-06T00:57:14;10.70;;;3.38;;
21315;SDS011;10817;55.820;13.030;2023-08-06T00:59:41;4.25;;;3.30;;
21315;SDS011;10817;55.820;13.030;2023-08-06T01:02:08;9.18;;;3.38;;
21315;SDS011;10817;55.820;13.030;2023-08-06T01:04:36;6.35;;;3.30;;
21315;SDS011;10817;55.820;13.030;2023-08-06T01:07:06;6.70;;;3.40;;
21315;SDS011;10817;55.820;13.030;2023-08-06T01:09:42;4.80;;;3.33;;
21315;SDS011;10817;55.820;13.030;2023-08-06T01:12:17;4.40;;;2.88;;
21315;SDS011;10817;55.820;13.030;2023-08-06T01:14:47;6.13;;;3.50;;
21315;SDS011;10817;55.820;13.030;2023-08-06T01:17:15;8.48;;;3.30;;
21315;SDS011;10817;55.820;13.030;2023-08-06T01:19:42;5.10;;;3.42;;
21315;SDS011;10817;55.820;13.030;2023-08-06T01:22:10;5.22;;;3.40;;
21315;SDS011;10817;55.820;13.030;2023-08-06T01:24:38;7.97;;;3.15;;
21315;SDS011;10817;55.820;13.030;2023-08-06T01:27:06;6.30;;;3.45;;
21315;SDS011;10817;55.820;13.030;2023-08-06T01:29:35;4.68;;;3.08;;
21315;SDS011;10817;55.820;13.030;2023-08-06T01:32:02;6.57;;;3.38;;
21315;SDS011;10817;55.820;13.030;2023-08-06T01:34:30;4.68;;;3.40;;
21315;SDS011;10817;55.820;13.030;2023-08-06T01:36:58;4.22;;;3.50;;
21315;SDS011;10817;55.820;13.030;2023-08-06T01:39:28;8.20;;;3.90;;
21315;SDS011;10817;55.820;13.030;2023-08-06T01:41:55;5.50;;;3.05;;
21315;SDS011;10817;55.820;13.030;2023-08-06T01:44:22;7.28;;;3.40;;
21315;SDS011;10817;55.820;13.030;2023-08-06T01:46:50;7.82;;;3.25;;
21315;SDS011;10817;55.820;13.030;2023-08-06T01:49:17;6.05;;;3.28;;
21315;SDS011;10817;55.820;13.030;2023-08-06T01:51:44;8.63;;;4.63;;
21315;SDS011;10817;55.820;13.030;2023-08-06T01:54:11;10.77;;;3.53;;
21315;SDS011;10817;55.820;13.030;2023-08-06T01:56:39;5.28;;;3.67;;
21315;SDS011;10817;55.820;13.030;2023-08-06T01:59:07;13.23;;;4.07;;
21315;SDS011;10817;55.820;13.030;2023-08-06T02:01:34;7.18;;;3.45;;
21315;SDS011;10817;55.820;13.030;2023-08-06T02:04:01;9.13;;;3.22;;
21315;SDS011;10817;55.820;13.030;2023-08-06T02:06:28;4.80;;;4.00;;
21315;SDS011;10817;55.820;13.030;2023-08-06T02:08:56;6.43;;;3.35;;
21315;SDS011;10817;55.820;13.030;2023-08-06T02:11:23;8.77;;;4.07;;
21315;SDS011;10817;55.820;13.030;2023-08-06T02:13:52;7.07;;;4.38;;
21315;SDS011;10817;55.820;13.030;2023-08-06T02:16:19;11.52;;;4.55;;
21315;SDS011;10817;55.820;13.030;2023-08-06T02:18:47;5.78;;;3.95;;
21315;SDS011;10817;55.820;13.030;2023-08-06T02:21:14;7.18;;;4.07;;
21315;SDS011;10817;55.820;13.030;2023-08-06T02:23:41;11.15;;;3.47;;
21315;SDS011;10817;55.820;13.030;2023-08-06T02:26:09;5.43;;;3.55;;
21315;SDS011;10817;55.820;13.030;2023-08-06T02:28:36;9.35;;;3.75;;
21315;SDS011;10817;55.820;13.030;2023-08-06T02:31:05;4.80;;;3.67;;
21315;SDS011;10817;55.820;13.030;2023-08-06T02:33:35;5.60;;;4.35;;
21315;SDS011;10817;55.820;13.030;2023-08-06T02:36:03;6.47;;;3.65;;
21315;SDS011;10817;55.820;13.030;2023-08-06T02:38:30;4.30;;;3.13;;
21315;SDS011;10817;55.820;13.030;2023-08-06T02:40:58;5.35;;;3.80;;
21315;SDS011;10817;55.820;13.030;2023-08-06T02:43:25;7.38;;;3.85;;
21315;SDS011;10817;55.820;13.030;2023-08-06T02:45:56;5.65;;;4.05;;
21315;SDS011;10817;55.820;13.030;2023-08-06T02:48:25;9.50;;;3.95;;
21315;SDS011;10817;55.820;13.030;2023-08-06T02:50:52;8.93;;;4.53;;
21315;SDS011;10817;55.820;13.030;2023-08-06T02:53:19;6.15;;;4.20;;
21315;SDS011;10817;55.820;13.030;2023-08-06T02:55:48;8.88;;;4.50;;
21315;SDS011;10817;55.820;13.030;2023-08-06T02:58:19;5.63;;;4.45;;
21315;SDS011;10817;55.820;13.030;2023-08-06T03:01:01;7.53;;;4.40;;
21315;SDS011;10817;55.820;13.030;2023-08-06T03:03:30;7.13;;;4.68;;
21315;SDS011;10817;55.820;13.030;2023-08-06T03:06:00;8.82;;;4.68;;
21315;SDS011;10817;55.820;13.030;2023-08-06T03:08:38;9.45;;;4.22;;
21315;SDS011;10817;55.820;13.030;2023-08-06T03:11:05;5.22;;;3.90;;
21315;SDS011;10817;55.820;13.030;2023-08-06T03:13:33;5.55;;;4.13;;
21315;SDS011;10817;55.820;13.030;2023-08-06T03:16:01;9.95;;;3.92;;
21315;SDS011;10817;55.820;13.030;2023-08-06T03:18:31;5.15;;;3.88;;
21315;SDS011;10817;55.820;13.030;2023-08-06T03:21:01;8.13;;;4.18;;
21315;SDS011;10817;55.820;13.030;2023-08-06T03:23:29;6.10;;;3.80;;
21315;SDS011;10817;55.820;13.030;2023-08-06T03:26:00;6.88;;;4.15;;
21315;SDS011;10817;55.820;13.030;2023-08-06T03:28:29;5.90;;;3.70;;
21315;SDS011;10817;55.820;13.030;2023-08-06T03:30:59;6.18;;;4.18;;
21315;SDS011;10817;55.820;13.030;2023-08-06T03:33:31;5.28;;;4.22;;
21315;SDS011;10817;55.820;13.030;2023-08-06T03:36:00;8.48;;;4.10;;
21315;SDS011;10817;55.820;13.030;2023-08-06T03:38:29;5.43;;;4.13;;
21315;SDS011;10817;55.820;13.030;2023-08-06T03:40:58;5.78;;;4.25;;
21315;SDS011;10817;55.820;13.030;2023-08-06T03:43:25;5.53;;;4.40;;
21315;SDS011;10817;55.820;13.030;2023-08-06T03:45:52;5.03;;;4.32;;
21315;SDS011;10817;55.820;13.030;2023-08-06T03:48:20;5.80;;;4.25;;
21315;SDS011;10817;55.820;13.030;2023-08-06T03:50:48;5.93;;;4.10;;
21315;SDS011;10817;55.820;13.030;2023-08-06T03:53:17;6.78;;;4.03;;
21315;SDS011;10817;55.820;13.030;2023-08-06T03:55:44;10.32;;;4.53;;
21315;SDS011;10817;55.820;13.030;2023-08-06T03:58:11;5.78;;;4.30;;
21315;SDS011;10817;55.820;13.030;2023-08-06T04:00:39;5.07;;;4.20;;
21315;SDS011;10817;55.820;13.030;2023-08-06T04:03:06;5.80;;;4.40;;
21315;SDS011;10817;55.820;13.030;2023-08-06T04:05:33;9.38;;;4.15;;
21315;SDS011;10817;55.820;13.030;2023-08-06T04:08:01;8.57;;;4.28;;
21315;SDS011;10817;55.820;13.030;2023-08-06T04:10:29;8.50;;;4.40;;
21315;SDS011;10817;55.820;13.030;2023-08-06T04:12:57;5.88;;;4.47;;
21315;SDS011;10817;55.820;13.030;2023-08-06T04:15:24;8.88;;;3.80;;
21315;SDS011;10817;55.820;13.030;2023-08-06T04:17:51;6.45;;;4.40;;
21315;SDS011;10817;55.820;13.030;2023-08-06T04:20:18;5.63;;;4.25;;
21315;SDS011;10817;55.820;13.030;2023-08-06T04:22:45;7.30;;;4.35;;
21315;SDS011;10817;55.820;13.030;2023-08-06T04:25:14;6.57;;;4.05;;
21315;SDS011;10817;55.820;13.030;2023-08-06T04:27:46;11.25;;;4.13;;
21315;SDS011;10817;55.820;13.030;2023-08-06T04:30:13;11.35;;;4.05;;
21315;SDS011;10817;55.820;13.030;2023-08-06T04:32:40;6.88;;;4.00;;
21315;SDS011;10817;55.820;13.030;2023-08-06T04:35:08;8.00;;;4.03;;
21315;SDS011;10817;55.820;13.030;2023-08-06T04:37:36;6.55;;;4.00;;
21315;SDS011;10817;55.820;13.030;2023-08-06T04:40:03;8.43;;;3.60;;
21315;SDS011;10817;55.820;13.030;2023-08-06T04:42:33;5.38;;;3.97;;
21315;SDS011;10817;55.820;13.030;2023-08-06T04:45:01;6.63;;;4.25;;
21315;SDS011;10817;55.820;13.030;2023-08-06T04:47:28;9.00;;;4.20;;
21315;SDS011;10817;55.820;13.030;2023-08-06T04:49:55;5.15;;;3.65;;
21315;SDS011;10817;55.820;13.030;2023-08-06T04:52:22;7.53;;;4.00;;
21315;SDS011;10817;55.820;13.030;2023-08-06T04:54:52;6.25;;;3.67;;
21315;SDS011;10817;55.820;13.030;2023-08-06T04:57:19;7.20;;;3.42;;
21315;SDS011;10817;55.820;13.030;2023-08-06T04:59:48;6.72;;;3.22;;
21315;SDS011;10817;55.820;13.030;2023-08-06T05:02:15;3.83;;;3.40;;
21315;SDS011;10817;55.820;13.030;2023-08-06T05:04:42;6.85;;;3.25;;
21315;SDS011;10817;55.820;13.030;2023-08-06T05:07:10;5.35;;;3.05;;
21315;SDS011;10817;55.820;13.030;2023-08-06T05:09:37;5.05;;;3.58;;
21315;SDS011;10817;55.820;13.030;2023-08-06T05:12:05;4.50;;;3.33;;
21315;SDS011;10817;55.820;13.030;2023-08-06T05:14:32;5.45;;;2.88;;
21315;SDS011;10817;55.820;13.030;2023-08-06T05:17:00;6.05;;;3.08;;
21315;SDS011;10817;55.820;13.030;2023-08-06T05:19:29;3.55;;;3.05;;
21315;SDS011;10817;55.820;13.030;2023-08-06T05:21:56;7.95;;;3.13;;
21315;SDS011;10817;55.820;13.030;2023-08-06T05:24:23;5.57;;;3.20;;
21315;SDS011;10817;55.820;13.030;2023-08-06T05:26:51;4.18;;;3.00;;
21315;SDS011;10817;55.820;13.030;2023-08-06T05:29:18;6.20;;;3.38;;
21315;SDS011;10817;55.820;13.030;2023-08-06T05:31:45;6.97;;;2.97;;
21315;SDS011;10817;55.820;13.030;2023-08-06T05:34:13;3.92;;;2.72;;
21315;SDS011;10817;55.820;13.030;2023-08-06T05:36:40;5.13;;;2.80;;
21315;SDS011;10817;55.820;13.030;2023-08-06T05:39:08;5.05;;;3.20;;
21315;SDS011;10817;55.820;13.030;2023-08-06T05:41:35;5.00;;;3.20;;
21315;SDS011;10817;55.820;13.030;2023-08-06T05:44:02;5.60;;;3.20;;
21315;SDS011;10817;55.820;13.030;2023-08-06T05:46:29;6.13;;;3.30;;
21315;SDS011;10817;55.820;13.030;2023-08-06T05:48:56;4.55;;;3.30;;
21315;SDS011;10817;55.820;13.030;2023-08-06T05:51:25;7.65;;;3.20;;
21315;SDS011;10817;55.820;13.030;2023-08-06T05:53:52;3.70;;;2.90;;
21315;SDS011;10817;55.820;13.030;2023-08-06T05:56:19;5.20;;;2.95;;
21315;SDS011;10817;55.820;13.030;2023-08-06T05:58:46;3.72;;;2.63;;
21315;SDS011;10817;55.820;13.030;2023-08-06T06:01:16;3.53;;;2.60;;
21315;SDS011;10817;55.820;13.030;2023-08-06T06:03:43;6.70;;;2.80;;
21315;SDS011;10817;55.820;13.030;2023-08-06T06:06:10;6.78;;;2.60;;
21315;SDS011;10817;55.820;13.030;2023-08-06T06:08:39;4.85;;;2.47;;
21315;SDS011;10817;55.820;13.030;2023-08-06T06:11:06;4.65;;;2.45;;
21315;SDS011;10817;55.820;13.030;2023-08-06T06:13:33;8.48;;;2.83;;
21315;SDS011;10817;55.820;13.030;2023-08-06T06:16:00;6.68;;;2.00;;
21315;SDS011;10817;55.820;13.030;2023-08-06T06:18:27;2.72;;;2.35;;
21315;SDS011;10817;55.820;13.030;2023-08-06T06:20:54;5.68;;;2.40;;
21315;SDS011;10817;55.820;13.030;2023-08-06T06:23:22;7.68;;;2.75;;
21315;SDS011;10817;55.820;13.030;2023-08-06T06:25:50;4.93;;;2.75;;
21315;SDS011;10817;55.820;13.030;2023-08-06T06:28:17;3.45;;;2.28;;
21315;SDS011;10817;55.820;13.030;2023-08-06T06:30:44;4.10;;;2.40;;
21315;SDS011;10817;55.820;13.030;2023-08-06T06:33:12;3.88;;;2.30;;
21315;SDS011;10817;55.820;13.030;2023-08-06T06:35:39;3.13;;;2.00;;
21315;SDS011;10817;55.820;13.030;2023-08-06T06:38:06;2.92;;;1.70;;
21315;SDS011;10817;55.820;13.030;2023-08-06T06:40:33;4.00;;;2.20;;
21315;SDS011;10817;55.820;13.030;2023-08-06T06:43:01;4.07;;;1.83;;
21315;SDS011;10817;55.820;13.030;2023-08-06T06:45:29;7.07;;;2.15;;
21315;SDS011;10817;55.820;13.030;2023-08-06T06:47:56;3.50;;;1.80;;
21315;SDS011;10817;55.820;13.030;2023-08-06T06:50:23;2.17;;;1.70;;
21315;SDS011;10817;55.820;13.030;2023-08-06T06:52:51;3.38;;;1.85;;
21315;SDS011;10817;55.820;13.030;2023-08-06T06:55:18;4.97;;;2.05;;
21315;SDS011;10817;55.820;13.030;2023-08-06T06:57:45;2.58;;;1.70;;
21315;SDS011;10817;55.820;13.030;2023-08-06T07:00:14;1.73;;;1.15;;
21315;SDS011;10817;55.820;13.030;2023-08-06T07:02:41;2.63;;;1.52;;
21315;SDS011;10817;55.820;13.030;2023-08-06T07:05:08;3.92;;;2.00;;
21315;SDS011;10817;55.820;13.030;2023-08-06T07:07:35;4.38;;;1.63;;
21315;SDS011;10817;55.820;13.030;2023-08-06T07:10:03;2.05;;;1.40;;
21315;SDS011;10817;55.820;13.030;2023-08-06T07:12:31;3.20;;;1.77;;
21315;SDS011;10817;55.820;13.030;2023-08-06T07:14:58;10.65;;;1.67;;
21315;SDS011;10817;55.820;13.030;2023-08-06T07:17:26;8.90;;;1.60;;
21315;SDS011;10817;55.820;13.030;2023-08-06T07:19:53;4.82;;;1.50;;
21315;SDS011;10817;55.820;13.030;2023-08-06T07:22:20;3.38;;;1.65;;
21315;SDS011;10817;55.820;13.030;2023-08-06T07:24:47;1.77;;;1.27;;
21315;SDS011;10817;55.820;13.030;2023-08-06T07:27:15;4.18;;;1.70;;
21315;SDS011;10817;55.820;13.030;2023-08-06T07:29:42;4.70;;;1.70;;
21315;SDS011;10817;55.820;13.030;2023-08-06T07:32:09;2.10;;;1.65;;
21315;SDS011;10817;55.820;13.030;2023-08-06T07:34:37;7.68;;;1.63;;
21315;SDS011;10817;55.820;13.030;2023-08-06T07:37:05;5.25;;;1.45;;
21315;SDS011;10817;55.820;13.030;2023-08-06T07:39:32;4.07;;;1.90;;
21315;SDS011;10817;55.820;13.030;2023-08-06T07:41:59;3.65;;;2.13;;
21315;SDS011;10817;55.820;13.030;2023-08-06T07:44:27;6.93;;;1.60;;
21315;SDS011;10817;55.820;13.030;2023-08-06T07:46:54;4.38;;;1.60;;
21315;SDS011;10817;55.820;13.030;2023-08-06T07:49:21;4.00;;;1.60;;
21315;SDS011;10817;55.820;13.030;2023-08-06T07:51:50;4.82;;;1.70;;
21315;SDS011;10817;55.820;13.030;2023-08-06T07:54:18;2.20;;;1.65;;
21315;SDS011;10817;55.820;13.030;2023-08-06T07:56:45;5.38;;;1.70;;
21315;SDS011;10817;55.820;13.030;2023-08-06T07:59:12;2.65;;;1.60;;
21315;SDS011;10817;55.820;13.030;2023-08-06T08:01:39;5.25;;;1.85;;
21315;SDS011;10817;55.820;13.030;2023-08-06T08:04:06;3.10;;;1.67;;
21315;SDS011;10817;55.820;13.030;2023-08-06T08:06:33;4.40;;;1.75;;
21315;SDS011;10817;55.820;13.030;2023-08-06T08:09:02;4.13;;;1.98;;
21315;SDS011;10817;55.820;13.030;2023-08-06T08:11:29;3.03;;;1.80;;
21315;SDS011;10817;55.820;13.030;2023-08-06T08:13:56;5.00;;;2.00;;
21315;SDS011;10817;55.820;13.030;2023-08-06T08:16:23;7.70;;;2.35;;
21315;SDS011;10817;55.820;13.030;2023-08-06T08:18:50;3.20;;;1.88;;
21315;SDS011;10817;55.820;13.030;2023-08-06T08:21:18;4.72;;;1.60;;
21315;SDS011;10817;55.820;13.030;2023-08-06T08:23:45;7.05;;;2.30;;
21315;SDS011;10817;55.820;13.030;2023-08-06T08:26:13;9.68;;;2.13;;
21315;SDS011;10817;55.820;13.030;2023-08-06T08:28:40;4.78;;;2.50;;
21315;SDS011;10817;55.820;13.030;2023-08-06T08:31:08;6.07;;;2.10;;
21315;SDS011;10817;55.820;13.030;2023-08-06T08:33:36;8.45;;;2.22;;
21315;SDS011;10817;55.820;13.030;2023-08-06T08:36:03;5.00;;;2.05;;
21315;SDS011;10817;55.820;13.030;2023-08-06T08:38:30;6.80;;;2.47;;
21315;SDS011;10817;55.820;13.030;2023-08-06T08:40:58;5.75;;;1.90;;
21315;SDS011;10817;55.820;13.030;2023-08-06T08:43:26;5.32;;;2.10;;
21315;SDS011;10817;55.820;13.030;2023-08-06T08:45:54;3.78;;;2.00;;
21315;SDS011;10817;55.820;13.030;2023-08-06T08:48:24;5.10;;;2.08;;
21315;SDS011;10817;55.820;13.030;2023-08-06T08:50:52;3.60;;;2.15;;
21315;SDS011;10817;55.820;13.030;2023-08-06T08:53:19;5.13;;;2.08;;
21315;SDS011;10817;55.820;13.030;2023-08-06T08:55:48;3.63;;;1.90;;
21315;SDS011;10817;55.820;13.030;2023-08-06T08:58:15;2.33;;;1.83;;
21315;SDS011;10817;55.820;13.030;2023-08-06T09:00:44;4.72;;;2.20;;
21315;SDS011;10817;55.820;13.030;2023-08-06T09:03:12;5.03;;;2.22;;
21315;SDS011;10817;55.820;13.030;2023-08-06T09:05:39;6.43;;;2.17;;
21315;SDS011;10817;55.820;13.030;2023-08-06T09:08:08;4.13;;;1.83;;
21315;SDS011;10817;55.820;13.030;2023-08-06T09:10:37;5.57;;;2.10;;
21315;SDS011;10817;55.820;13.030;2023-08-06T09:13:05;7.30;;;2.40;;
21315;SDS011;10817;55.820;13.030;2023-08-06T09:15:32;5.50;;;2.20;;
21315;SDS011;10817;55.820;13.030;2023-08-06T09:18:01;3.38;;;2.05;;
21315;SDS011;10817;55.820;13.030;2023-08-06T09:20:36;3.53;;;2.50;;
21315;SDS011;10817;55.820;13.030;2023-08-06T09:23:06;3.58;;;2.00;;
21315;SDS011;10817;55.820;13.030;2023-08-06T09:25:34;4.68;;;2.20;;
21315;SDS011;10817;55.820;13.030;2023-08-06T09:28:03;3.75;;;2.15;;
21315;SDS011;10817;55.820;13.030;2023-08-06T09:30:30;4.22;;;2.25;;
21315;SDS011;10817;55.820;13.030;2023-08-06T09:32:58;9.77;;;2.65;;
21315;SDS011;10817;55.820;13.030;2023-08-06T09:35:28;5.43;;;2.38;;
21315;SDS011;10817;55.820;13.030;2023-08-06T09:37:56;5.10;;;2.20;;
21315;SDS011;10817;55.820;13.030;2023-08-06T09:40:29;8.15;;;2.40;;
21315;SDS011;10817;55.820;13.030;2023-08-06T09:42:56;3.22;;;2.35;;
21315;SDS011;10817;55.820;13.030;2023-08-06T09:45:23;5.38;;;2.33;;
21315;SDS011;10817;55.820;13.030;2023-08-06T09:47:55;6.03;;;3.40;;
21315;SDS011;10817;55.820;13.030;2023-08-06T09:50:23;6.40;;;2.78;;
21315;SDS011;10817;55.820;13.030;2023-08-06T09:52:52;6.45;;;2.80;;
21315;SDS011;10817;55.820;13.030;2023-08-06T09:55:19;8.85;;;3.10;;
21315;SDS011;10817;55.820;13.030;2023-08-06T09:57:47;13.00;;;2.88;;
21315;SDS011;10817;55.820;13.030;2023-08-06T10:00:14;6.13;;;2.88;;
21315;SDS011;10817;55.820;13.030;2023-08-06T10:02:44;9.25;;;2.88;;
21315;SDS011;10817;55.820;13.030;2023-08-06T10:05:12;6.10;;;2.92;;
21315;SDS011;10817;55.820;13.030;2023-08-06T10:07:39;6.43;;;2.80;;
21315;SDS011;10817;55.820;13.030;2023-08-06T10:10:08;5.53;;;2.80;;
21315;SDS011;10817;55.820;13.030;2023-08-06T10:12:36;7.18;;;3.10;;
21315;SDS011;10817;55.820;13.030;2023-08-06T10:15:05;5.95;;;3.13;;
21315;SDS011;10817;55.820;13.030;2023-08-06T10:17:33;6.68;;;3.15;;
21315;SDS011;10817;55.820;13.030;2023-08-06T10:20:02;7.80;;;3.08;;
21315;SDS011;10817;55.820;13.030;2023-08-06T10:22:32;6.10;;;3.63;;
21315;SDS011;10817;55.820;13.030;2023-08-06T10:25:00;6.25;;;2.90;;
21315;SDS011;10817;55.820;13.030;2023-08-06T10:27:31;5.60;;;3.15;;
21315;SDS011;10817;55.820;13.030;2023-08-06T10:32:48;7.10;;;3.22;;
21315;SDS011;10817;55.820;13.030;2023-08-06T10:35:27;3.75;;;3.00;;
21315;SDS011;10817;55.820;13.030;2023-08-06T10:37:57;8.52;;;3.17;;
21315;SDS011;10817;55.820;13.030;2023-08-06T10:40:24;4.63;;;3.10;;
21315;SDS011;10817;55.820;13.030;2023-08-06T10:42:53;5.10;;;2.90;;
21315;SDS011;10817;55.820;13.030;2023-08-06T10:45:20;6.07;;;3.30;;
21315;SDS011;10817;55.820;13.030;2023-08-06T10:47:53;3.95;;;2.65;;
21315;SDS011;10817;55.820;13.030;2023-08-06T10:50:20;7.25;;;3.17;;
21315;SDS011;10817;55.820;13.030;2023-08-06T10:52:48;4.82;;;2.92;;
21315;SDS011;10817;55.820;13.030;2023-08-06T10:55:21;5.65;;;2.92;;
21315;SDS011;10817;55.820;13.030;2023-08-06T10:57:49;5.03;;;3.03;;
21315;SDS011;10817;55.820;13.030;2023-08-06T11:00:17;5.50;;;3.35;;
21315;SDS011;10817;55.820;13.030;2023-08-06T11:02:46;8.27;;;3.03;;
21315;SDS011;10817;55.820;13.030;2023-08-06T11:05:13;5.43;;;3.10;;
21315;SDS011;10817;55.820;13.030;2023-08-06T11:07:41;4.00;;;3.00;;
21315;SDS011;10817;55.820;13.030;2023-08-06T11:10:09;5.97;;;3.05;;
21315;SDS011;10817;55.820;13.030;2023-08-06T11:12:36;4.85;;;2.90;;
21315;SDS011;10817;55.820;13.030;2023-08-06T11:15:04;6.90;;;3.00;;
21315;SDS011;10817;55.820;13.030;2023-08-06T11:17:33;4.05;;;2.67;;
21315;SDS011;10817;55.820;13.030;2023-08-06T11:20:01;5.10;;;3.03;;
21315;SDS011;10817;55.820;13.030;2023-08-06T11:22:29;8.07;;;2.75;;
21315;SDS011;10817;55.820;13.030;2023-08-06T11:24:56;8.30;;;2.60;;
21315;SDS011;10817;55.820;13.030;2023-08-06T11:27:26;5.63;;;3.08;;
21315;SDS011;10817;55.820;13.030;2023-08-06T11:29:54;5.13;;;2.70;;
21315;SDS011;10817;55.820;13.030;2023-08-06T11:32:21;4.95;;;2.80;;
21315;SDS011;10817;55.820;13.030;2023-08-06T11:34:50;4.93;;;2.75;;
21315;SDS011;10817;55.820;13.030;2023-08-06T11:37:20;7.57;;;3.00;;
21315;SDS011;10817;55.820;13.030;2023-08-06T11:39:49;12.82;;;3.45;;
21315;SDS011;10817;55.820;13.030;2023-08-06T11:42:16;6.05;;;2.75;;
21315;SDS011;10817;55.820;13.030;2023-08-06T11:44:43;4.97;;;2.78;;
21315;SDS011;10817;55.820;13.030;2023-08-06T11:47:12;5.53;;;2.60;;
21315;SDS011;10817;55.820;13.030;2023-08-06T11:49:40;6.15;;;3.20;;
21315;SDS011;10817;55.820;13.030;2023-08-06T11:52:28;4.25;;;2.55;;
21315;SDS011;10817;55.820;13.030;2023-08-06T11:55:02;3.92;;;2.53;;
21315;SDS011;10817;55.820;13.030;2023-08-06T11:57:31;8.07;;;2.88;;
21315;SDS011;10817;55.820;13.030;2023-08-06T12:00:03;6.43;;;3.20;;
21315;SDS011;10817;55.820;13.030;2023-08-06T12:02:38;4.35;;;2.88;;
21315;SDS011;10817;55.820;13.030;2023-08-06T12:05:10;6.32;;;3.00;;
21315;SDS011;10817;55.820;13.030;2023-08-06T12:07:40;5.75;;;2.92;;
21315;SDS011;10817;55.820;13.030;2023-08-06T12:10:08;6.15;;;3.05;;
21315;SDS011;10817;55.820;13.030;2023-08-06T12:12:35;6.55;;;2.85;;
21315;SDS011;10817;55.820;13.030;2023-08-06T12:15:04;6.18;;;3.50;;
21315;SDS011;10817;55.820;13.030;2023-08-06T12:17:31;5.93;;;2.80;;
21315;SDS011;10817;55.820;13.030;2023-08-06T12:19:58;6.57;;;3.00;;
21315;SDS011;10817;55.820;13.030;2023-08-06T12:22:26;6.07;;;3.15;;
21315;SDS011;10817;55.820;13.030;2023-08-06T12:24:54;7.63;;;3.30;;
21315;SDS011;10817;55.820;13.030;2023-08-06T12:27:21;4.88;;;3.00;;
21315;SDS011;10817;55.820;13.030;2023-08-06T12:29:48;5.88;;;2.90;;
21315;SDS011;10817;55.820;13.030;2023-08-06T12:32:16;5.60;;;2.67;;
21315;SDS011;10817;55.820;13.030;2023-08-06T12:34:44;4.18;;;2.80;;
21315;SDS011;10817;55.820;13.030;2023-08-06T12:37:11;4.65;;;2.50;;
21315;SDS011;10817;55.820;13.030;2023-08-06T12:39:38;4.70;;;2.90;;
21315;SDS011;10817;55.820;13.030;2023-08-06T12:42:07;3.45;;;2.63;;
21315;SDS011;10817;55.820;13.030;2023-08-06T12:44:35;7.35;;;2.70;;
21315;SDS011;10817;55.820;13.030;2023-08-06T12:47:02;6.55;;;2.80;;
21315;SDS011;10817;55.820;13.030;2023-08-06T12:49:30;4.90;;;2.70;;
21315;SDS011;10817;55.820;13.030;2023-08-06T12:51:58;5.88;;;3.28;;
21315;SDS011;10817;55.820;13.030;2023-08-06T12:54:26;5.80;;;2.80;;
21315;SDS011;10817;55.820;13.030;2023-08-06T12:56:53;8.45;;;2.80;;
21315;SDS011;10817;55.820;13.030;2023-08-06T12:59:21;5.03;;;2.70;;
21315;SDS011;10817;55.820;13.030;2023-08-06T13:01:49;6.57;;;3.33;;
21315;SDS011;10817;55.820;13.030;2023-08-06T13:04:16;5.47;;;2.60;;
21315;SDS011;10817;55.820;13.030;2023-08-06T13:06:43;5.93;;;2.70;;
21315;SDS011;10817;55.820;13.030;2023-08-06T13:09:10;6.00;;;3.08;;
21315;SDS011;10817;55.820;13.030;2023-08-06T13:11:37;5.75;;;3.10;;
21315;SDS011;10817;55.820;13.030;2023-08-06T13:14:05;4.68;;;3.08;;
21315;SDS011;10817;55.820;13.030;2023-08-06T13:16:34;7.97;;;3.13;;
21315;SDS011;10817;55.820;13.030;2023-08-06T13:19:02;5.38;;;2.78;;
21315;SDS011;10817;55.820;13.030;2023-08-06T13:21:31;6.28;;;3.00;;
21315;SDS011;10817;55.820;13.030;2023-08-06T13:23:59;5.72;;;3.00;;
21315;SDS011;10817;55.820;13.030;2023-08-06T13:26:26;5.97;;;2.85;;
21315;SDS011;10817;55.820;13.030;2023-08-06T13:28:53;4.35;;;3.05;;
21315;SDS011;10817;55.820;13.030;2023-08-06T13:31:20;6.13;;;2.90;;
21315;SDS011;10817;55.820;13.030;2023-08-06T13:33:49;5.50;;;3.05;;
21315;SDS011;10817;55.820;13.030;2023-08-06T13:36:16;4.68;;;2.92;;
21315;SDS011;10817;55.820;13.030;2023-08-06T13:38:44;4.15;;;3.03;;
21315;SDS011;10817;55.820;13.030;2023-08-06T13:41:11;6.30;;;3.22;;
21315;SDS011;10817;55.820;13.030;2023-08-06T13:43:38;5.15;;;3.65;;
21315;SDS011;10817;55.820;13.030;2023-08-06T13:46:05;6.22;;;3.60;;
21315;SDS011;10817;55.820;13.030;2023-08-06T13:48:32;7.97;;;3.60;;
21315;SDS011;10817;55.820;13.030;2023-08-06T13:51:01;4.63;;;3.40;;
21315;SDS011;10817;55.820;13.030;2023-08-06T13:53:28;7.15;;;3.50;;
21315;SDS011;10817;55.820;13.030;2023-08-06T13:55:55;5.55;;;3.78;;
21315;SDS011;10817;55.820;13.030;2023-08-06T13:58:23;11.35;;;3.75;;
21315;SDS011;10817;55.820;13.030;2023-08-06T14:00:51;8.73;;;3.80;;
21315;SDS011;10817;55.820;13.030;2023-08-06T14:03:19;5.57;;;3.90;;
21315;SDS011;10817;55.820;13.030;2023-08-06T14:05:46;6.95;;;3.50;;
21315;SDS011;10817;55.820;13.030;2023-08-06T14:08:16;8.70;;;3.33;;
21315;SDS011;10817;55.820;13.030;2023-08-06T14:10:43;9.63;;;3.42;;
21315;SDS011;10817;55.820;13.030;2023-08-06T14:13:11;3.60;;;2.90;;
21315;SDS011;10817;55.820;13.030;2023-08-06T14:15:38;7.30;;;3.38;;
21315;SDS011;10817;55.820;13.030;2023-08-06T14:18:06;7.72;;;3.20;;
21315;SDS011;10817;55.820;13.030;2023-08-06T14:20:34;4.10;;;2.95;;
21315;SDS011;10817;55.820;13.030;2023-08-06T14:23:01;6.47;;;2.83;;
21315;SDS011;10817;55.820;13.030;2023-08-06T14:25:29;5.10;;;2.95;;
21315;SDS011;10817;55.820;13.030;2023-08-06T14:27:57;8.27;;;3.10;;
21315;SDS011;10817;55.820;13.030;2023-08-06T14:30:24;5.38;;;3.33;;
21315;SDS011;10817;55.820;13.030;2023-08-06T14:32:51;6.05;;;3.17;;
21315;SDS011;10817;55.820;13.030;2023-08-06T14:35:18;6.15;;;3.00;;
21315;SDS011;10817;55.820;13.030;2023-08-06T14:37:45;5.30;;;3.22;;
21315;SDS011;10817;55.820;13.030;2023-08-06T14:40:12;5.07;;;2.75;;